Time;durP1;ratioP1;P1;durP2;ratioP2;P2;SDS_P1;SDS_P2;PMS_P1;PMS_P2;Temp;Humidity;BMP_temperature;BMP_pressure;BME280_temperature;BME280_humidity;BME280_pressure;Samples;Min_cycle;Max_cycle;Signal;HPM_P1;HPM_P2
2023/10/06 00:01:40;;;;;;;3.10;2.40;;;;;;;14.84;100.00;98591.47;1225366;75;2923546;-71
2023/10/06 00:04:15;;;;;;;3.05;2.00;;;;;;;14.78;100.00;98590.63;1224375;75;2921493;-72
2023/10/06 00:06:50;;;;;;;2.90;2.10;;;;;;;14.75;100.00;98599.84;1213218;75;3809563;-69
2023/10/06 00:09:28;;;;;;;2.15;1.45;;;;;;;14.90;100.00;98600.53;1226005;75;2920654;-71
2023/10/06 00:12:03;;;;;;;1.70;1.50;;;;;;;14.95;100.00;98601.09;1226298;75;2907527;-75
2023/10/06 00:14:43;;;;;;;1.95;1.55;;;;;;;14.94;100.00;98602.34;1224188;75;2978324;-71
2023/10/06 00:17:18;;;;;;;1.55;1.40;;;;;;;14.82;100.00;98606.97;1198154;75;4081484;-69
2023/10/06 00:19:55;;;;;;;2.45;1.70;;;;;;;14.78;100.00;98607.16;1225712;75;2932136;-71
2023/10/06 00:22:31;;;;;;;2.80;2.00;;;;;;;14.65;100.00;98604.72;1224246;75;2912561;-68
2023/10/06 00:25:13;;;;;;;4.20;2.65;;;;;;;14.54;100.00;98614.84;1217236;75;3083007;-68
2023/10/06 00:27:46;;;;;;;2.45;1.65;;;;;;;14.54;100.00;98620.34;1223676;75;2959215;-71
2023/10/06 00:30:20;;;;;;;3.70;2.00;;;;;;;14.54;100.00;98618.34;1220761;75;3017180;-71
2023/10/06 00:32:54;;;;;;;2.80;2.00;;;;;;;14.79;100.00;98614.19;1225614;75;2921751;-69
2023/10/06 00:35:30;;;;;;;2.85;1.90;;;;;;;14.57;100.00;98614.63;1226110;75;2920886;-74
2023/10/06 00:38:12;;;;;;;2.90;2.10;;;;;;;14.44;100.00;98614.91;1226271;75;2913224;-71
2023/10/06 00:40:51;;;;;;;2.90;2.20;;;;;;;14.58;100.00;98605.13;1213307;75;3940611;-69
2023/10/06 00:43:34;;;;;;;2.90;1.50;;;;;;;14.77;100.00;98605.66;1224673;75;2943241;-70
2023/10/06 00:46:09;;;;;;;2.90;1.70;;;;;;;14.84;100.00;98605.25;1222774;75;3036709;-71
2023/10/06 00:48:44;;;;;;;2.25;1.80;;;;;;;14.84;100.00;98599.72;1225210;75;2912189;-71
2023/10/06 00:51:19;;;;;;;2.90;1.70;;;;;;;14.89;100.00;98604.56;1223161;75;3070887;-71
2023/10/06 00:53:56;;;;;;;1.35;1.15;;;;;;;14.90;100.00;98600.53;1187963;75;5931254;-71
2023/10/06 00:56:30;;;;;;;2.20;1.30;;;;;;;14.92;100.00;98600.06;1225608;75;2912247;-70
2023/10/06 00:59:04;;;;;;;2.00;1.60;;;;;;;14.89;100.00;98598.28;1225964;75;2916225;-76
2023/10/06 01:01:36;;;;;;;2.65;1.90;;;;;;;14.87;100.00;98596.00;1225336;75;2914915;-71
2023/10/06 01:04:11;;;;;;;3.10;1.90;;;;;;;14.89;100.00;98593.53;1225094;75;2913615;-69
2023/10/06 01:06:45;;;;;;;2.15;1.50;;;;;;;14.76;100.00;98604.13;1219819;75;3069119;-69
2023/10/06 01:09:30;;;;;;;4.30;2.90;;;;;;;14.61;100.00;98603.41;1224413;75;2952914;-68
2023/10/06 01:12:06;;;;;;;4.15;2.85;;;;;;;14.40;100.00;98603.34;1223817;75;2987260;-72
2023/10/06 01:14:39;;;;;;;5.65;2.70;;;;;;;14.47;100.00;98604.94;1220844;75;3086707;-70
2023/10/06 01:17:17;;;;;;;3.40;2.60;;;;;;;14.72;100.00;98602.78;1225285;75;2927253;-75
2023/10/06 01:19:53;;;;;;;3.90;2.60;;;;;;;14.72;100.00;98600.81;1208978;75;3922505;-69
2023/10/06 01:22:29;;;;;;;2.15;1.80;;;;;;;14.76;100.00;98615.13;1209152;75;3938977;-69
2023/10/06 01:25:11;;;;;;;2.90;2.15;;;;;;;14.87;100.00;98609.78;1223027;75;2916638;-72
2023/10/06 01:27:44;;;;;;;2.65;1.70;;;;;;;14.87;100.00;98618.06;1222627;75;2947953;-69
2023/10/06 01:30:20;;;;;;;2.45;1.80;;;;;;;14.80;100.00;98625.97;1208228;75;4081028;-69
2023/10/06 01:32:53;;;;;;;2.10;1.55;;;;;;;14.88;100.00;98616.81;1224592;75;2917365;-70
2023/10/06 01:35:26;;;;;;;2.40;1.65;;;;;;;14.98;100.00;98611.16;1221820;75;3092555;-70
2023/10/06 01:38:05;;;;;;;2.78;1.77;;;;;;;15.01;100.00;98612.94;1198813;75;4929750;-70
2023/10/06 01:40:43;;;;;;;;;;;;;;;14.95;100.00;98620.41;1226265;75;2918756;-70
2023/10/06 01:43:16;;;;;;;5.30;2.50;;;;;;;14.64;100.00;98633.50;1226051;75;2916601;-71
2023/10/06 01:45:51;;;;;;;4.70;3.15;;;;;;;14.52;100.00;98631.06;1213107;75;3853701;-69
2023/10/06 01:48:31;;;;;;;4.75;3.50;;;;;;;14.54;100.00;98634.13;1222104;75;2998135;-69
2023/10/06 01:51:08;;;;;;;4.20;2.80;;;;;;;14.70;100.00;98619.84;1225876;75;2894588;-71
2023/10/06 01:53:44;;;;;;;3.90;2.35;;;;;;;14.84;100.00;98626.50;1225434;75;2918163;-71
2023/10/06 01:56:21;;;;;;;2.70;2.10;;;;;;;14.86;100.00;98624.03;1225248;75;2924508;-69
2023/10/06 01:58:55;;;;;;;4.70;2.40;;;;;;;14.66;100.00;98630.28;1223514;75;3020729;-72
2023/10/06 02:01:28;;;;;;;3.95;2.60;;;;;;;14.30;100.00;98635.00;1187954;75;5064218;-69
2023/10/06 02:04:00;;;;;;;4.80;3.50;;;;;;;14.30;100.00;98637.00;1223679;75;2921335;-68
2023/10/06 02:06:33;;;;;;;3.50;2.55;;;;;;;14.46;100.00;98639.25;1225195;75;2928195;-68
2023/10/06 02:09:14;;;;;;;4.25;2.55;;;;;;;14.64;100.00;98647.28;1226722;75;2916916;-70
2023/10/06 02:11:49;;;;;;;3.15;2.20;;;;;;;14.56;100.00;98639.91;1210066;75;4085996;-72
2023/10/06 02:14:22;;;;;;;3.20;2.20;;;;;;;14.78;100.00;98642.22;1223589;75;2947096;-74
2023/10/06 02:16:56;;;;;;;3.15;1.95;;;;;;;14.81;100.00;98647.53;1224133;75;2947133;-71
2023/10/06 02:19:29;;;;;;;2.00;1.50;;;;;;;14.66;100.00;98647.56;1224905;75;2918224;-71
2023/10/06 02:22:06;;;;;;;2.40;1.70;;;;;;;14.61;100.00;98651.00;1225804;75;2913909;-76
2023/10/06 02:24:42;;;;;;;2.50;1.55;;;;;;;14.56;100.00;98657.22;1222539;75;3068269;-72
2023/10/06 02:27:15;;;;;;;2.00;1.55;;;;;;;14.49;100.00;98658.31;1225708;75;2916772;-71
2023/10/06 02:29:49;;;;;;;1.80;1.40;;;;;;;14.48;100.00;98661.56;1211523;75;3989058;-67
2023/10/06 02:32:22;;;;;;;3.60;1.75;;;;;;;14.57;100.00;98660.72;1225353;75;2909229;-75
2023/10/06 02:34:55;;;;;;;1.70;1.35;;;;;;;14.62;100.00;98669.09;1222924;75;3094080;-71
2023/10/06 02:37:28;;;;;;;2.15;1.45;;;;;;;14.62;100.00;98669.09;1225457;75;2917734;-71
2023/10/06 02:40:10;;;;;;;1.85;1.60;;;;;;;14.35;100.00;98683.91;1225187;75;2913257;-71
2023/10/06 02:42:47;;;;;;;2.35;1.65;;;;;;;14.43;100.00;98676.00;1225928;75;2919120;-70
2023/10/06 02:45:21;;;;;;;2.05;1.50;;;;;;;14.54;100.00;98676.22;1225107;75;2915478;-71
2023/10/06 02:47:57;;;;;;;2.50;1.50;;;;;;;14.58;100.00;98676.03;1225571;75;2924029;-71
2023/10/06 02:50:33;;;;;;;3.05;1.65;;;;;;;14.43;100.00;98681.50;1212529;75;3874678;-70
2023/10/06 02:53:13;;;;;;;4.35;2.80;;;;;;;13.98;100.00;98681.53;1226339;75;2923089;-70
2023/10/06 02:55:55;;;;;;;4.10;3.00;;;;;;;13.90;100.00;98674.88;1212062;75;3819856;-70
2023/10/06 02:58:30;;;;;;;3.60;2.60;;;;;;;14.02;100.00;98681.34;1219714;75;3087118;-70
2023/10/06 03:01:04;;;;;;;3.80;3.00;;;;;;;14.13;100.00;98686.28;1225552;75;2919116;-71
2023/10/06 03:03:36;;;;;;;3.40;2.50;;;;;;;14.10;100.00;98679.72;1224158;75;2928950;-71
2023/10/06 03:06:09;;;;;;;2.30;1.70;;;;;;;14.21;100.00;98682.66;1225821;75;2918803;-68
2023/10/06 03:08:42;;;;;;;3.10;2.00;;;;;;;14.31;100.00;98685.31;1226284;83;2916273;-76
2023/10/06 03:11:25;;;;;;;2.15;1.75;;;;;;;14.38;100.00;98691.22;1226149;75;2911925;-70
2023/10/06 03:13:58;;;;;;;2.45;1.70;;;;;;;14.28;100.00;98685.03;1225924;75;2871384;-74
2023/10/06 03:16:32;;;;;;;2.35;1.60;;;;;;;14.22;100.00;98684.19;1224898;75;2922980;-76
2023/10/06 03:19:07;;;;;;;2.80;1.70;;;;;;;14.12;100.00;98684.75;1224346;75;2926121;-73
2023/10/06 03:21:45;;;;;;;1.80;1.60;;;;;;;14.22;100.00;98689.69;1224994;75;2926644;-70
2023/10/06 03:24:20;;;;;;;1.40;1.20;;;;;;;14.10;100.00;98695.50;1225250;75;2920043;-70
2023/10/06 03:26:57;;;;;;;1.80;1.40;;;;;;;14.13;100.00;98689.03;1222052;75;3016381;-71
2023/10/06 03:29:43;;;;;;;1.80;1.35;;;;;;;14.15;100.00;98689.34;1223761;75;2923087;-71
2023/10/06 03:32:27;;;;;;;2.25;1.60;;;;;;;13.86;100.00;98682.56;1225504;75;2917939;-71
2023/10/06 03:35:08;;;;;;;2.70;1.95;;;;;;;13.92;100.00;98691.66;1218870;75;3015044;-70
2023/10/06 03:37:51;;;;;;;3.50;1.80;;;;;;;13.98;100.00;98692.53;1222576;75;2994414;-68
2023/10/06 03:40:30;;;;;;;2.25;1.70;;;;;;;13.99;100.00;98694.06;1225197;75;2915878;-71
2023/10/06 03:43:06;;;;;;;1.55;1.40;;;;;;;13.96;100.00;98695.00;1224870;75;2922051;-72
2023/10/06 03:45:42;;;;;;;1.85;1.30;;;;;;;14.03;100.00;98702.13;1223401;75;2923370;-70
2023/10/06 03:48:15;;;;;;;1.90;1.35;;;;;;;14.00;100.00;98697.59;1226505;75;2912187;-72
2023/10/06 03:50:48;;;;;;;1.30;1.10;;;;;;;14.03;100.00;98699.38;1223658;75;2920546;-69
2023/10/06 03:53:21;;;;;;;2.90;1.30;;;;;;;13.95;100.00;98696.25;1222621;75;3024027;-69
2023/10/06 03:55:56;;;;;;;2.40;1.35;;;;;;;13.95;100.00;98692.72;1221498;75;3086840;-72
2023/10/06 03:58:32;;;;;;;2.15;1.45;;;;;;;13.90;100.00;98699.63;1224589;75;2921851;-72
2023/10/06 04:01:08;;;;;;;1.80;1.30;;;;;;;13.90;100.00;98698.88;1222642;75;3105075;-71
2023/10/06 04:03:41;;;;;;;2.00;1.50;;;;;;;13.85;100.00;98700.31;1208023;75;3999514;-70
2023/10/06 04:06:15;;;;;;;2.30;1.55;;;;;;;13.60;100.00;98701.59;1224961;75;2930770;-70
2023/10/06 04:08:48;;;;;;;2.65;1.25;;;;;;;13.67;100.00;98703.22;1223580;75;3009675;-70
2023/10/06 04:11:21;;;;;;;2.00;1.25;;;;;;;13.66;100.00;98704.44;1224685;75;2927123;-74
2023/10/06 04:13:57;;;;;;;1.50;1.10;;;;;;;13.64;100.00;98702.19;1225409;75;2936352;-72
2023/10/06 04:16:30;;;;;;;2.25;1.45;;;;;;;13.49;100.00;98712.38;1224009;75;2929936;-72
2023/10/06 04:19:03;;;;;;;1.55;1.20;;;;;;;13.42;100.00;98711.50;1224461;75;2913341;-70
2023/10/06 04:21:35;;;;;;;2.15;1.45;;;;;;;13.39;100.00;98712.41;1223709;75;2919164;-71
2023/10/06 04:24:09;;;;;;;2.55;1.45;;;;;;;13.24;100.00;98708.09;1222706;75;2934642;-69
2023/10/06 04:26:42;;;;;;;2.30;1.60;;;;;;;13.12;100.00;98712.59;1224385;75;2921571;-72
2023/10/06 04:29:18;;;;;;;3.25;1.95;;;;;;;12.79;100.00;98719.63;1223521;75;2966973;-69
2023/10/06 04:31:51;;;;;;;2.40;1.70;;;;;;;13.00;100.00;98712.31;1224181;75;2929484;-71
2023/10/06 04:34:33;;;;;;;2.25;1.50;;;;;;;13.08;100.00;98715.50;1224811;75;2923442;-68
2023/10/06 04:37:07;;;;;;;2.60;1.60;;;;;;;12.88;100.00;98731.78;1201189;75;4807364;-68
2023/10/06 04:39:42;;;;;;;4.55;2.65;;;;;;;12.62;100.00;98723.94;1223944;75;2937811;-67
2023/10/06 04:42:14;;;;;;;5.05;3.65;;;;;;;12.51;100.00;98726.44;1225082;75;2917935;-69
2023/10/06 04:44:54;;;;;;;4.90;3.40;;;;;;;12.57;100.00;98727.31;1225120;75;2923774;-68
2023/10/06 04:47:31;;;;;;;3.45;2.80;;;;;;;12.79;100.00;98729.84;1225019;75;2921686;-68
2023/10/06 04:50:08;;;;;;;3.55;2.60;;;;;;;12.83;100.00;98729.69;1224830;75;2922034;-71
2023/10/06 04:52:46;;;;;;;3.10;2.30;;;;;;;12.90;100.00;98741.09;1209532;75;4089519;-71
2023/10/06 04:55:19;;;;;;;2.95;2.00;;;;;;;12.80;100.00;98731.38;1222125;75;3028630;-67
2023/10/06 04:57:52;;;;;;;2.00;1.55;;;;;;;12.78;100.00;98731.06;1224529;75;2921028;-71
2023/10/06 05:00:28;;;;;;;2.80;2.10;;;;;;;12.65;100.00;98733.25;1225171;75;2920593;-70
2023/10/06 05:03:04;;;;;;;2.30;1.70;;;;;;;12.69;100.00;98731.09;1224553;75;2929465;-71
2023/10/06 05:05:40;;;;;;;2.85;2.10;;;;;;;12.70;100.00;98733.38;1223894;75;2920823;-70
2023/10/06 05:08:14;;;;;;;2.85;1.70;;;;;;;12.45;100.00;98729.03;1224329;75;2927787;-72
2023/10/06 05:10:47;;;;;;;3.05;2.15;;;;;;;12.42;100.00;98737.44;1223891;75;2987784;-69
2023/10/06 05:13:20;;;;;;;3.45;2.25;;;;;;;12.23;100.00;98736.72;1224263;75;2924066;-67
2023/10/06 05:15:55;;;;;;;3.55;2.40;;;;;;;12.23;100.00;98748.47;1224731;75;2921940;-67
2023/10/06 05:18:29;;;;;;;3.35;2.50;;;;;;;12.32;100.00;98744.94;1223146;75;2924041;-67
2023/10/06 05:21:01;;;;;;;2.60;1.95;;;;;;;12.34;100.00;98754.25;1220155;75;3092784;-70
2023/10/06 05:23:34;;;;;;;3.30;2.80;;;;;;;12.45;100.00;98747.50;1210578;75;3889557;-69
2023/10/06 05:26:08;;;;;;;3.00;2.05;;;;;;;12.43;100.00;98752.69;1223904;75;2929100;-69
2023/10/06 05:28:42;;;;;;;3.90;2.90;;;;;;;12.21;100.00;98756.38;1224693;75;2923293;-68
2023/10/06 05:31:17;;;;;;;3.15;2.40;;;;;;;12.47;100.00;98754.06;1222289;75;3038380;-65
2023/10/06 05:33:51;;;;;;;3.20;2.25;;;;;;;12.40;100.00;98751.63;1225248;75;2925341;-68
2023/10/06 05:36:24;;;;;;;3.85;2.60;;;;;;;12.30;100.00;98759.13;1225073;75;2927745;-67
2023/10/06 05:38:56;;;;;;;3.75;2.20;;;;;;;12.42;100.00;98760.16;1222183;75;3044111;-71
2023/10/06 05:41:35;;;;;;;2.20;1.80;;;;;;;12.52;100.00;98767.16;1210561;75;3795441;-69
2023/10/06 05:44:08;;;;;;;;;;;;;;;12.38;100.00;98767.78;1208111;75;3925812;-71
2023/10/06 05:46:44;;;;;;;4.20;3.00;;;;;;;12.35;100.00;98768.72;1225711;75;2920942;-70
2023/10/06 05:49:20;;;;;;;8.65;5.45;;;;;;;12.18;100.00;98778.53;1224648;75;2938277;-69
2023/10/06 05:51:54;;;;;;;6.50;4.55;;;;;;;12.38;100.00;98786.25;1223772;75;2924233;-70
2023/10/06 05:54:29;;;;;;;4.35;3.25;;;;;;;12.62;100.00;98789.88;1224682;75;2917217;-71
2023/10/06 05:57:02;;;;;;;4.15;3.25;;;;;;;12.51;100.00;98792.34;1224102;75;2925766;-69
2023/10/06 05:59:36;;;;;;;3.40;2.90;;;;;;;12.69;100.00;98802.53;1221782;75;3100294;-69
2023/10/06 06:02:12;;;;;;;2.90;2.30;;;;;;;12.92;100.00;98796.34;1224755;75;2920375;-69
2023/10/06 06:04:44;;;;;;;3.15;2.40;;;;;;;13.08;100.00;98803.47;1224431;75;2920367;-70
2023/10/06 06:07:18;;;;;;;3.05;2.20;;;;;;;13.24;100.00;98807.06;1224812;75;2929323;-69
2023/10/06 06:09:50;;;;;;;2.50;1.95;;;;;;;13.43;100.00;98812.03;1224848;75;2924349;-70
2023/10/06 06:12:23;;;;;;;2.75;2.00;;;;;;;13.98;100.00;98812.91;1210638;75;3979741;-67
2023/10/06 06:14:56;;;;;;;2.20;1.75;;;;;;;13.93;100.00;98819.09;1225519;75;2925791;-68
2023/10/06 06:17:31;;;;;;;2.10;1.60;;;;;;;14.68;100.00;98824.25;1199729;75;4831513;-70
2023/10/06 06:20:07;;;;;;;3.40;1.70;;;;;;;16.69;100.00;98818.38;1222492;75;3040136;-70
2023/10/06 06:22:40;;;;;;;3.45;1.70;;;;;;;18.74;87.33;98814.84;1185851;75;4817989;-70
2023/10/06 06:25:13;;;;;;;2.90;1.50;;;;;;;20.16;74.45;98818.13;1210980;75;3953809;-70
2023/10/06 06:27:45;;;;;;;1.95;1.60;;;;;;;21.33;69.76;98815.75;1225408;75;2922606;-70
2023/10/06 06:30:23;;;;;;;3.05;1.60;;;;;;;23.12;62.97;98823.06;1224663;75;2920302;-68
2023/10/06 06:33:01;;;;;;;2.35;1.30;;;;;;;24.00;59.29;98823.22;1225572;75;2926334;-70
2023/10/06 06:35:35;;;;;;;2.10;1.50;;;;;;;25.57;54.66;98824.38;1223237;75;3011584;-67
2023/10/06 06:38:12;;;;;;;5.50;1.90;;;;;;;25.68;53.62;98812.84;1224887;75;2927152;-68
2023/10/06 06:40:45;;;;;;;2.40;1.55;;;;;;;26.47;51.46;98827.41;1225954;75;2922845;-67
2023/10/06 06:43:20;;;;;;;3.00;2.00;;;;;;;25.36;53.38;98820.88;1224469;75;2927210;-71
2023/10/06 06:45:53;;;;;;;2.25;1.55;;;;;;;25.36;52.92;98837.69;1224343;83;2924323;-69
2023/10/06 06:48:28;;;;;;;2.65;1.65;;;;;;;23.75;57.00;98848.63;1225008;75;2927592;-70
2023/10/06 06:51:01;;;;;;;5.80;2.20;;;;;;;23.49;56.16;98848.59;1199513;75;4877115;-69
2023/10/06 06:53:34;;;;;;;4.65;2.30;;;;;;;20.74;63.74;98851.44;1225229;75;2893254;-70
2023/10/06 06:56:07;;;;;;;6.60;3.65;;;;;;;19.18;69.45;98856.25;1225167;75;2926636;-65
2023/10/06 06:58:40;;;;;;;5.50;3.20;;;;;;;18.17;72.60;98856.84;1224127;75;2925722;-72
2023/10/06 07:01:16;;;;;;;4.85;2.80;;;;;;;18.06;74.15;98854.75;1224545;75;2922651;-71
2023/10/06 07:03:51;;;;;;;4.55;3.10;;;;;;;18.19;71.85;98857.84;1224439;75;2921460;-67
2023/10/06 07:06:26;;;;;;;5.30;3.10;;;;;;;19.31;67.77;98857.28;1225829;75;2919962;-70
2023/10/06 07:08:59;;;;;;;5.45;3.05;;;;;;;18.41;68.09;98862.69;1220516;75;3110987;-72
2023/10/06 07:11:34;;;;;;;5.35;3.15;;;;;;;18.38;70.72;98866.47;1224390;75;2920251;-70
2023/10/06 07:14:08;;;;;;;7.70;3.35;;;;;;;17.14;76.52;98859.50;1224167;75;2931347;-75
2023/10/06 07:16:42;;;;;;;7.35;3.80;;;;;;;16.17;83.74;98868.81;1224818;75;2921405;-72
2023/10/06 07:19:18;;;;;;;6.20;3.20;;;;;;;16.92;81.57;98858.06;1225016;75;2919127;-68
2023/10/06 07:21:50;;;;;;;7.90;3.90;;;;;;;16.47;79.82;98854.06;1225427;75;2928711;-70
2023/10/06 07:24:24;;;;;;;14.80;4.20;;;;;;;16.36;79.55;98855.47;1223156;75;2928763;-71
2023/10/06 07:26:56;;;;;;;7.85;3.60;;;;;;;16.93;77.29;98862.34;1222411;75;2922689;-68
2023/10/06 07:29:31;;;;;;;6.50;3.10;;;;;;;17.00;77.40;98866.66;1224846;75;2932139;-69
2023/10/06 07:32:03;;;;;;;6.75;3.85;;;;;;;16.88;76.90;98860.28;1222517;75;3025379;-68
2023/10/06 07:34:39;;;;;;;10.70;4.30;;;;;;;16.82;76.07;98853.94;1222853;75;3063629;-72
2023/10/06 07:37:11;;;;;;;7.70;4.05;;;;;;;16.85;73.85;98860.50;1213211;75;3785104;-73
2023/10/06 07:39:46;;;;;;;7.65;3.85;;;;;;;16.88;75.53;98859.50;1221096;75;3119292;-66
2023/10/06 07:42:19;;;;;;;8.40;3.80;;;;;;;16.55;75.42;98860.72;1212664;75;3793275;-73
2023/10/06 07:44:52;;;;;;;7.70;3.40;;;;;;;16.33;76.25;98853.69;1225308;75;2919279;-73
2023/10/06 07:47:31;;;;;;;7.20;3.65;;;;;;;16.29;76.79;98871.72;1225677;75;2921770;-68
2023/10/06 07:50:09;;;;;;;6.15;3.30;;;;;;;16.09;77.80;98884.31;1221163;75;3072464;-68
2023/10/06 07:52:41;;;;;;;6.90;3.10;;;;;;;16.15;79.28;98876.84;1225071;75;2928519;-68
2023/10/06 07:55:15;;;;;;;8.15;3.55;;;;;;;15.95;80.46;98879.59;1225612;75;2925163;-70
2023/10/06 07:57:48;;;;;;;5.80;3.30;;;;;;;15.85;81.84;98880.97;1223978;75;2936229;-66
2023/10/06 08:00:27;;;;;;;7.10;3.70;;;;;;;15.92;79.90;98872.25;1224978;75;2931060;-74
2023/10/06 08:03:01;;;;;;;5.20;2.90;;;;;;;16.34;78.73;98880.06;1222845;75;3040024;-71
2023/10/06 08:05:38;;;;;;;5.05;2.50;;;;;;;16.59;76.43;98878.56;1223953;75;2942703;-68
2023/10/06 08:08:12;;;;;;;7.40;3.75;;;;;;;16.54;76.98;98884.03;1224258;75;2928562;-71
2023/10/06 08:10:45;;;;;;;10.80;4.10;;;;;;;17.32;71.13;98881.28;1225125;75;2919112;-71
2023/10/06 08:13:18;;;;;;;6.35;3.05;;;;;;;20.43;62.65;98881.19;1224454;75;2930440;-70
2023/10/06 08:15:51;;;;;;;6.25;3.00;;;;;;;22.55;55.15;98879.00;1212860;75;3790830;-72
2023/10/06 08:18:24;;;;;;;6.40;2.85;;;;;;;22.87;53.79;98877.53;1225036;75;2912978;-71
2023/10/06 08:21:00;;;;;;;6.05;2.95;;;;;;;22.39;53.92;98871.59;1225198;75;2917489;-72
2023/10/06 08:23:35;;;;;;;6.60;3.05;;;;;;;24.34;51.04;98868.03;1224344;75;2918937;-70
2023/10/06 08:26:13;;;;;;;6.90;3.40;;;;;;;22.21;53.44;98873.13;1222735;75;2996371;-70
2023/10/06 08:28:47;;;;;;;5.55;2.90;;;;;;;20.27;58.00;98886.81;1224924;75;2925011;-69
2023/10/06 08:31:20;;;;;;;5.25;3.00;;;;;;;21.90;55.38;98875.22;1224374;75;2924616;-71
2023/10/06 08:33:53;;;;;;;6.80;2.95;;;;;;;21.20;55.80;98877.66;1223478;75;2958899;-69
2023/10/06 08:36:28;;;;;;;10.30;2.90;;;;;;;21.33;56.98;98870.72;1213485;75;3786310;-70
2023/10/06 08:39:01;;;;;;;7.30;3.00;;;;;;;22.23;55.42;98872.59;1224647;75;2923847;-71
2023/10/06 08:41:39;;;;;;;6.30;3.00;;;;;;;22.08;54.85;98882.13;1213453;75;3783482;-69
2023/10/06 08:44:14;;;;;;;4.30;2.90;;;;;;;21.16;57.70;98873.66;1224738;75;2919968;-68
2023/10/06 08:46:48;;;;;;;6.40;3.05;;;;;;;19.08;61.53;98878.72;1212460;75;3802570;-73
2023/10/06 08:49:21;;;;;;;6.80;3.15;;;;;;;20.60;58.57;98872.78;1224531;75;2948110;-69
2023/10/06 08:51:57;;;;;;;6.90;3.25;;;;;;;20.20;58.92;98888.13;1225119;75;2919398;-67
2023/10/06 08:54:32;;;;;;;6.75;3.20;;;;;;;20.13;59.84;98875.53;1209141;75;4045989;-68
2023/10/06 08:57:06;;;;;;;6.50;3.00;;;;;;;20.17;59.15;98878.78;1224321;75;2927183;-71
2023/10/06 08:59:39;;;;;;;6.95;2.85;;;;;;;20.59;58.55;98867.75;1221723;75;2999243;-70
2023/10/06 09:02:16;;;;;;;6.15;3.40;;;;;;;20.15;60.15;98867.41;1224209;75;2923210;-73
2023/10/06 09:04:49;;;;;;;6.00;3.10;;;;;;;20.71;58.63;98869.19;1224370;75;2920135;-74
2023/10/06 09:07:25;;;;;;;5.30;2.90;;;;;;;20.76;59.31;98868.38;1224183;75;2922892;-72
2023/10/06 09:09:59;;;;;;;8.85;3.40;;;;;;;19.97;60.27;98876.34;1222019;75;2989813;-70
2023/10/06 09:12:34;;;;;;;6.65;3.35;;;;;;;19.97;59.30;98874.31;1223184;75;2931205;-68
2023/10/06 09:15:09;;;;;;;6.80;3.35;;;;;;;19.65;60.04;98865.53;1221667;75;3080668;-72
2023/10/06 09:17:42;;;;;;;5.30;2.70;;;;;;;20.41;60.30;98860.72;1222426;75;2972015;-69
2023/10/06 09:20:15;;;;;;;5.85;2.85;;;;;;;19.81;59.93;98852.13;1219177;75;3076294;-72
2023/10/06 09:22:51;;;;;;;5.75;2.95;;;;;;;20.46;60.44;98853.63;1224571;75;2924006;-74
2023/10/06 09:25:24;;;;;;;6.35;3.00;;;;;;;20.41;60.25;98844.03;1224062;75;2923806;-70
2023/10/06 09:28:13;;;;;;;6.45;3.25;;;;;;;20.56;59.71;98846.50;1222028;75;3099368;-72
2023/10/06 09:30:56;;;;;;;6.65;3.15;;;;;;;20.18;59.62;98835.81;1225043;75;2935910;-72
2023/10/06 09:33:31;;;;;;;5.25;3.15;;;;;;;20.54;59.49;98829.53;1224541;75;2926070;-76
2023/10/06 09:36:11;;;;;;;6.45;3.15;;;;;;;20.39;59.08;98829.88;1225277;75;2922671;-70
2023/10/06 09:38:47;;;;;;;6.35;3.00;;;;;;;20.96;57.65;98821.94;1224625;75;2920384;-70
2023/10/06 09:41:32;;;;;;;4.50;2.35;;;;;;;22.88;53.80;98814.81;1224970;75;2922635;-72
2023/10/06 09:44:11;;;;;;;6.55;3.10;;;;;;;21.22;55.50;98805.50;1223423;75;2939427;-70
2023/10/06 09:46:45;;;;;;;8.70;3.30;;;;;;;21.57;55.11;98803.88;1225225;75;2927252;-68
2023/10/06 09:49:19;;;;;;;9.00;3.45;;;;;;;22.15;54.80;98801.91;1221760;75;3048931;-72
2023/10/06 09:51:54;;;;;;;5.75;2.75;;;;;;;21.55;55.22;98803.66;1224407;75;2916229;-68
2023/10/06 09:54:30;;;;;;;6.50;3.00;;;;;;;21.64;54.78;98794.94;1211953;75;3943537;-73
2023/10/06 09:57:07;;;;;;;6.10;2.70;;;;;;;21.63;55.25;98804.59;1211669;75;3908174;-73
2023/10/06 09:59:40;;;;;;;7.60;2.90;;;;;;;21.08;56.48;98789.19;1224795;75;2929686;-70
2023/10/06 10:02:20;;;;;;;7.30;2.75;;;;;;;22.72;53.47;98783.84;1223820;75;2923827;-68
2023/10/06 10:04:54;;;;;;;7.60;3.30;;;;;;;21.52;54.58;98795.59;1222013;75;3030373;-70
2023/10/06 10:07:27;;;;;;;6.85;3.65;;;;;;;20.96;56.63;98803.19;1223323;75;2919980;-70
2023/10/06 10:10:05;;;;;;;5.50;2.55;;;;;;;22.07;54.77;98802.50;1225232;75;2924016;-73
2023/10/06 10:12:58;;;;;;;6.20;2.70;;;;;;;22.28;53.47;98799.22;1219270;75;3095921;-68
2023/10/06 10:15:45;;;;;;;6.80;2.90;;;;;;;22.50;53.98;98793.31;1208543;75;3908428;-74
2023/10/06 10:18:29;;;;;;;5.90;2.90;;;;;;;21.78;53.83;98787.44;1225690;75;2919101;-74
2023/10/06 10:21:04;;;;;;;6.20;2.90;;;;;;;21.89;54.88;98776.16;1224322;75;2932843;-72
2023/10/06 10:23:37;;;;;;;4.55;2.40;;;;;;;22.43;53.15;98777.19;1223620;75;2947640;-70
2023/10/06 10:26:25;;;;;;;6.30;2.65;;;;;;;22.18;53.91;98773.00;1221914;75;3054535;-70
2023/10/06 10:29:31;;;;;;;6.10;2.70;;;;;;;21.73;54.55;98762.41;1222100;75;2993464;-68
2023/10/06 10:32:17;;;;;;;5.80;2.30;;;;;;;22.99;52.04;98758.06;1225069;75;2919840;-70
2023/10/06 10:35:13;;;;;;;4.75;2.40;;;;;;;23.51;52.10;98757.31;1224525;75;2919711;-68
2023/10/06 10:38:14;;;;;;;5.30;2.70;;;;;;;23.08;52.40;98749.25;1223046;75;2898051;-69
2023/10/06 10:40:52;;;;;;;5.35;2.80;;;;;;;23.15;50.38;98749.38;1224174;75;2922064;-72
2023/10/06 10:43:27;;;;;;;4.95;2.70;;;;;;;23.53;51.38;98745.63;1225508;75;2919004;-70
2023/10/06 10:46:01;;;;;;;4.65;2.25;;;;;;;22.87;51.84;98743.50;1224550;75;2917070;-69
2023/10/06 10:48:37;;;;;;;5.95;2.90;;;;;;;23.92;49.59;98753.22;1224600;75;2923079;-71
2023/10/06 10:51:21;;;;;;;5.60;2.70;;;;;;;23.52;50.63;98749.69;1222315;75;2934947;-68
2023/10/06 10:53:56;;;;;;;4.95;2.55;;;;;;;23.30;50.49;98748.09;1223875;75;2937412;-71
2023/10/06 10:56:37;;;;;;;6.20;2.80;;;;;;;23.03;50.80;98744.53;1222400;75;2950659;-70
2023/10/06 10:59:12;;;;;;;6.15;2.70;;;;;;;24.28;49.05;98715.53;1221936;75;3060286;-69
2023/10/06 11:01:47;;;;;;;5.00;2.55;;;;;;;23.85;49.78;98705.59;1224593;75;2929224;-71
2023/10/06 11:04:29;;;;;;;6.40;3.00;;;;;;;22.68;51.99;98705.25;1224286;75;2925847;-72
2023/10/06 11:07:11;;;;;;;4.05;2.40;;;;;;;24.55;48.82;98713.38;1208410;75;4106232;-73
2023/10/06 11:09:47;;;;;;;3.90;2.05;;;;;;;25.78;46.57;98716.97;1222844;75;3018663;-70
2023/10/06 11:12:29;;;;;;;5.05;2.65;;;;;;;25.61;46.74;98715.38;1224542;75;2926228;-69
2023/10/06 11:15:16;;;;;;;5.45;2.65;;;;;;;24.76;48.26;98716.19;1224435;75;2918982;-70
2023/10/06 11:17:49;;;;;;;4.50;2.50;;;;;;;24.23;49.39;98700.38;1223412;75;2926084;-68
2023/10/06 11:20:22;;;;;;;5.65;2.80;;;;;;;23.73;49.99;98700.22;1222898;75;2921585;-74
2023/10/06 11:22:59;;;;;;;5.20;2.70;;;;;;;23.57;50.59;98699.28;1222787;75;2975833;-69
2023/10/06 11:25:33;;;;;;;4.70;2.75;;;;;;;23.93;49.67;98698.78;1224503;75;2925970;-71
2023/10/06 11:28:08;;;;;;;4.60;2.50;;;;;;;25.63;46.93;98684.00;1211879;75;3870938;-74
2023/10/06 11:30:45;;;;;;;4.80;2.60;;;;;;;24.06;49.28;98700.03;1224019;75;2925499;-72
2023/10/06 11:33:19;;;;;;;5.45;2.35;;;;;;;25.79;46.23;98693.22;1223787;75;2931058;-68
2023/10/06 11:35:55;;;;;;;2.50;1.60;;;;;;;26.61;45.77;98679.16;1224700;75;2919077;-74
2023/10/06 11:38:28;;;;;;;6.50;2.50;;;;;;;26.37;45.59;98674.09;1221908;75;3105880;-71
2023/10/06 11:41:01;;;;;;;4.20;2.35;;;;;;;24.92;47.24;98675.78;1224211;75;2920769;-70
2023/10/06 11:43:33;;;;;;;4.15;2.30;;;;;;;24.86;47.80;98675.91;1225458;75;2918956;-72
2023/10/06 11:46:10;;;;;;;4.00;2.30;;;;;;;24.73;47.87;98680.88;1219816;67;3057159;-70
2023/10/06 11:48:42;;;;;;;4.80;2.45;;;;;;;25.79;46.46;98679.94;1223085;75;2951598;-71
2023/10/06 11:51:15;;;;;;;4.60;1.90;;;;;;;25.71;45.91;98668.72;1224900;75;2921441;-70
2023/10/06 11:53:48;;;;;;;4.50;2.25;;;;;;;25.89;45.23;98660.53;1224442;75;2922233;-69